createdAt,value
2022-11-19T00:02:20.535Z,1.70
2022-11-19T00:04:46.981Z,1.90
2022-11-19T00:07:13.372Z,1.58
2022-11-19T00:09:39.708Z,1.45
2022-11-19T00:12:24.561Z,0.90
2022-11-19T00:14:50.882Z,1.10
2022-11-19T00:17:17.290Z,1.00
2022-11-19T00:19:43.712Z,1.08
2022-11-19T00:22:09.986Z,0.88
2022-11-19T00:24:36.412Z,1.50
2022-11-19T00:27:02.943Z,1.40
2022-11-19T00:29:29.352Z,1.40
2022-11-19T00:31:55.723Z,0.90
2022-11-19T00:34:22.096Z,1.30
2022-11-19T00:36:48.487Z,1.13
2022-11-19T00:39:14.917Z,0.80
2022-11-19T00:41:41.325Z,0.80
2022-11-19T00:44:07.630Z,0.88
2022-11-19T00:46:33.952Z,0.90
2022-11-19T00:49:00.712Z,0.63
2022-11-19T00:51:28.678Z,0.80
2022-11-19T00:53:55.633Z,1.08
2022-11-19T00:56:23.818Z,1.25
2022-11-19T00:58:50.397Z,1.48
2022-11-19T01:01:17.827Z,1.25
2022-11-19T01:03:47.813Z,1.10
2022-11-19T01:06:19.168Z,1.13
2022-11-19T01:08:46.027Z,1.15
2022-11-19T01:11:17.367Z,1.77
2022-11-19T01:13:43.832Z,1.67
2022-11-19T01:16:11.804Z,1.10
2022-11-19T01:18:38.921Z,1.65
2022-11-19T01:21:06.439Z,2.42
2022-11-19T01:23:33.878Z,2.60
2022-11-19T01:26:00.834Z,2.00
2022-11-19T01:28:27.242Z,2.30
2022-11-19T01:30:53.594Z,2.80
2022-11-19T01:33:19.974Z,2.38
2022-11-19T01:35:56.527Z,1.80
2022-11-19T01:38:22.859Z,2.00
2022-11-19T01:40:49.138Z,3.20
2022-11-19T01:43:15.417Z,2.13
2022-11-19T01:45:48.253Z,2.72
2022-11-19T01:48:18.690Z,3.00
2022-11-19T01:50:47.850Z,3.78
2022-11-19T01:53:14.520Z,3.60
2022-11-19T01:55:42.620Z,3.05
2022-11-19T01:58:09.039Z,2.55
2022-11-19T02:00:35.800Z,2.65
2022-11-19T02:03:02.584Z,2.75
2022-11-19T02:05:28.971Z,2.28
2022-11-19T02:07:56.449Z,2.17
2022-11-19T02:10:45.740Z,2.58
2022-11-19T02:13:23.680Z,2.33
2022-11-19T02:15:49.938Z,2.50
2022-11-19T02:18:26.406Z,4.53
2022-11-19T02:21:19.199Z,3.15
2022-11-19T02:23:51.475Z,2.25
2022-11-19T02:26:20.612Z,3.60
2022-11-19T02:28:54.560Z,5.72
2022-11-19T02:31:24.056Z,3.75
2022-11-19T02:33:56.585Z,4.93
2022-11-19T02:36:28.539Z,2.67
2022-11-19T02:39:06.337Z,2.60
2022-11-19T02:41:35.732Z,3.67
2022-11-19T02:44:40.813Z,3.80
2022-11-19T02:47:09.246Z,1.98
2022-11-19T02:49:37.028Z,1.30
2022-11-19T02:52:04.372Z,2.20
2022-11-19T02:54:30.796Z,2.35
2022-11-19T02:57:00.611Z,2.70
2022-11-19T02:59:49.131Z,2.70
2022-11-19T03:02:34.770Z,3.70
2022-11-19T03:05:02.291Z,2.00
2022-11-19T03:07:28.684Z,2.65
2022-11-19T03:09:56.340Z,5.22
2022-11-19T03:12:41.519Z,3.47
2022-11-19T03:15:26.603Z,2.92
2022-11-19T03:17:55.800Z,2.30
2022-11-19T03:20:26.654Z,1.83
2022-11-19T03:23:14.387Z,2.03
2022-11-19T03:26:06.853Z,2.58
2022-11-19T03:28:34.787Z,6.20
2022-11-19T03:31:01.416Z,3.65
2022-11-19T03:33:33.321Z,3.25
2022-11-19T03:36:01.942Z,3.58
2022-11-19T03:38:30.664Z,6.13
2022-11-19T03:40:57.343Z,4.65
2022-11-19T03:43:26.738Z,3.90
2022-11-19T03:45:54.527Z,4.13
2022-11-19T03:48:21.870Z,3.95
2022-11-19T03:50:57.303Z,7.35
2022-11-19T03:53:23.932Z,7.72
2022-11-19T03:55:56.469Z,5.78
2022-11-19T03:58:26.568Z,5.00
2022-11-19T04:00:52.995Z,4.38
2022-11-19T04:03:19.315Z,7.38
2022-11-19T04:05:45.751Z,4.65
2022-11-19T04:08:12.100Z,4.50
2022-11-19T04:10:38.586Z,3.75
2022-11-19T04:13:04.945Z,3.58
2022-11-19T04:15:31.275Z,2.90
2022-11-19T04:17:57.632Z,3.47
2022-11-19T04:20:24.093Z,4.20
2022-11-19T04:22:53.524Z,4.45
2022-11-19T04:25:19.814Z,3.40
2022-11-19T04:27:46.706Z,2.92
2022-11-19T04:30:13.508Z,4.30
2022-11-19T04:32:39.820Z,4.65
2022-11-19T04:35:06.320Z,3.53
2022-11-19T04:37:32.718Z,9.05
2022-11-19T04:39:59.061Z,7.93
2022-11-19T04:42:25.504Z,5.63
2022-11-19T04:44:51.860Z,5.10
2022-11-19T04:47:18.196Z,5.35
2022-11-19T04:49:44.750Z,3.53
2022-11-19T04:52:11.115Z,4.40
2022-11-19T04:54:37.446Z,5.20
2022-11-19T04:57:03.883Z,5.50
2022-11-19T04:59:30.221Z,5.93
2022-11-19T05:01:56.629Z,4.68
2022-11-19T05:04:23.192Z,3.33
2022-11-19T05:06:49.528Z,7.45
2022-11-19T05:09:15.931Z,4.63
2022-11-19T05:11:42.658Z,6.22
2022-11-19T05:14:08.994Z,7.45
2022-11-19T05:16:35.405Z,6.13
2022-11-19T05:19:01.955Z,4.35
2022-11-19T05:21:28.385Z,6.10
2022-11-19T05:23:54.761Z,7.45
2022-11-19T05:26:21.125Z,7.75
2022-11-19T05:28:47.408Z,6.70
2022-11-19T05:31:13.759Z,7.07
2022-11-19T05:33:40.120Z,5.47
2022-11-19T05:36:06.732Z,5.82
2022-11-19T05:38:33.130Z,3.90
2022-11-19T05:40:59.612Z,4.50
2022-11-19T05:43:25.921Z,4.25
2022-11-19T05:45:52.315Z,4.32
2022-11-19T05:48:18.816Z,3.55
2022-11-19T05:50:45.211Z,4.78
2022-11-19T05:53:11.603Z,5.38
2022-11-19T05:55:38.044Z,4.28
2022-11-19T05:58:04.408Z,5.10
2022-11-19T06:00:30.759Z,5.53
2022-11-19T06:02:57.308Z,9.80
2022-11-19T06:05:23.706Z,6.40
2022-11-19T06:07:50.079Z,4.35
2022-11-19T06:10:16.558Z,6.22
2022-11-19T06:12:45.737Z,3.85
2022-11-19T06:15:12.548Z,3.85
2022-11-19T06:17:38.983Z,4.63
2022-11-19T06:20:08.768Z,4.93
2022-11-19T06:22:35.354Z,4.70
2022-11-19T06:25:02.052Z,4.38
2022-11-19T06:27:28.408Z,3.83
2022-11-19T06:29:56.351Z,3.92
2022-11-19T06:32:23.441Z,4.93
2022-11-19T06:34:49.838Z,4.93
2022-11-19T06:37:16.181Z,3.28
2022-11-19T06:39:42.896Z,2.90
2022-11-19T06:42:28.423Z,1.90
2022-11-19T06:44:54.776Z,3.00
2022-11-19T06:47:21.058Z,1.30
2022-11-19T06:49:51.399Z,1.20
2022-11-19T06:52:17.801Z,0.90
2022-11-19T06:54:44.128Z,1.70
2022-11-19T06:57:10.435Z,3.80
2022-11-19T06:59:39.074Z,2.78
2022-11-19T07:02:06.103Z,1.48
2022-11-19T07:04:32.452Z,2.65
2022-11-19T07:06:59.263Z,2.13
2022-11-19T07:09:25.729Z,2.30
2022-11-19T07:11:52.172Z,3.03
2022-11-19T07:14:18.662Z,5.18
2022-11-19T07:16:45.179Z,4.13
2022-11-19T07:19:11.632Z,2.50
2022-11-19T07:21:38.038Z,3.10
2022-11-19T07:24:05.482Z,3.03
2022-11-19T07:26:33.011Z,5.22
2022-11-19T07:29:04.990Z,2.50
2022-11-19T07:31:31.680Z,2.70
2022-11-19T07:33:58.028Z,2.03
2022-11-19T07:36:24.610Z,2.97
2022-11-19T07:38:52.261Z,2.92
2022-11-19T07:41:38.021Z,5.53
2022-11-19T07:44:04.502Z,2.95
2022-11-19T07:46:30.811Z,4.93
2022-11-19T07:48:57.780Z,7.05
2022-11-19T07:51:24.992Z,5.72
2022-11-19T07:53:51.691Z,5.72
2022-11-19T07:56:19.053Z,5.25
2022-11-19T07:58:45.529Z,8.25
2022-11-19T08:01:13.303Z,5.50
2022-11-19T08:03:41.998Z,5.78
2022-11-19T08:06:08.680Z,3.60
2022-11-19T08:08:34.995Z,3.67
2022-11-19T08:11:05.829Z,3.08
2022-11-19T08:13:32.450Z,3.05
2022-11-19T08:15:59.584Z,3.75
2022-11-19T08:18:30.917Z,4.22
2022-11-19T08:21:03.260Z,4.18
2022-11-19T08:23:29.656Z,3.72
2022-11-19T08:25:55.959Z,4.15
2022-11-19T08:28:22.236Z,3.92
2022-11-19T08:30:48.957Z,7.07
2022-11-19T08:33:15.300Z,4.88
2022-11-19T08:35:41.663Z,4.15
2022-11-19T08:38:08.045Z,3.30
2022-11-19T08:40:34.411Z,4.28
2022-11-19T08:43:00.735Z,4.75
2022-11-19T08:45:28.181Z,6.13
2022-11-19T08:47:55.174Z,6.30
2022-11-19T08:50:22.278Z,6.10
2022-11-19T08:53:08.966Z,4.47
2022-11-19T08:55:35.289Z,6.40
2022-11-19T08:58:02.514Z,8.45
2022-11-19T09:00:29.618Z,8.98
2022-11-19T09:02:56.111Z,5.32
2022-11-19T09:05:22.517Z,8.23
2022-11-19T09:07:49.026Z,7.00
2022-11-19T09:10:15.729Z,5.70
2022-11-19T09:12:42.096Z,5.07
2022-11-19T09:15:08.778Z,5.78
2022-11-19T09:17:35.323Z,4.07
2022-11-19T09:20:01.650Z,2.70
2022-11-19T09:22:28.196Z,2.08
2022-11-19T09:24:54.665Z,3.33
2022-11-19T09:27:21.036Z,5.72
2022-11-19T09:29:47.557Z,3.70
2022-11-19T09:32:14.213Z,4.35
2022-11-19T09:34:41.499Z,3.95
2022-11-19T09:37:08.540Z,7.32
2022-11-19T09:39:35.610Z,10.50
2022-11-19T09:42:23.523Z,6.60
2022-11-19T09:45:02.311Z,6.43
2022-11-19T09:47:31.783Z,5.47
2022-11-19T09:50:13.584Z,10.63
2022-11-19T09:52:45.676Z,7.93
2022-11-19T09:57:43.260Z,8.80
2022-11-19T10:00:09.990Z,6.00
2022-11-19T10:02:36.433Z,4.65
2022-11-19T10:05:03.132Z,7.10
2022-11-19T10:07:42.050Z,5.55
2022-11-19T10:10:34.029Z,4.63
2022-11-19T10:13:16.474Z,3.20
2022-11-19T10:15:57.081Z,6.45
2022-11-19T10:18:32.389Z,11.18
2022-11-19T10:21:11.107Z,6.72
2022-11-19T10:24:00.091Z,5.90
2022-11-19T10:26:33.928Z,5.32
2022-11-19T10:29:01.874Z,9.73
2022-11-19T10:31:30.573Z,9.15
2022-11-19T10:33:59.935Z,6.97
2022-11-19T10:36:29.476Z,7.78
2022-11-19T10:39:07.381Z,7.53
2022-11-19T10:41:36.296Z,5.95
2022-11-19T10:44:40.331Z,6.05
2022-11-19T10:47:14.040Z,6.15
2022-11-19T10:49:41.960Z,7.43
2022-11-19T10:52:17.700Z,4.55
2022-11-19T10:54:44.769Z,6.60
2022-11-19T10:57:14.571Z,5.55
2022-11-19T10:59:41.171Z,5.68
2022-11-19T11:02:26.629Z,6.38
2022-11-19T11:05:02.425Z,5.38
2022-11-19T11:07:50.494Z,8.07
2022-11-19T11:10:37.590Z,5.72
2022-11-19T11:13:35.024Z,4.88
2022-11-19T11:16:06.584Z,3.47
2022-11-19T11:18:33.150Z,3.47
2022-11-19T11:20:59.953Z,11.43
2022-11-19T11:23:27.281Z,7.05
2022-11-19T11:26:00.613Z,6.85
2022-11-19T11:28:26.950Z,5.60
2022-11-19T11:30:55.284Z,6.57
2022-11-19T11:33:24.329Z,10.02
2022-11-19T11:35:51.502Z,7.72
2022-11-19T11:38:21.543Z,6.82
2022-11-19T11:41:41.788Z,6.20
2022-11-19T11:44:15.767Z,6.57
2022-11-19T11:46:44.315Z,5.28
2022-11-19T11:49:22.870Z,5.07
2022-11-19T11:52:08.274Z,5.97
2022-11-19T11:54:35.228Z,5.28
2022-11-19T11:57:29.100Z,4.40
2022-11-19T11:59:55.725Z,4.03
2022-11-19T12:02:26.796Z,5.15
2022-11-19T12:04:54.598Z,5.63
2022-11-19T12:07:24.068Z,4.57
2022-11-19T12:10:10.206Z,5.10
2022-11-19T12:12:45.670Z,6.03
2022-11-19T12:15:29.475Z,7.70
2022-11-19T12:17:55.948Z,6.90
2022-11-19T12:20:28.187Z,6.60
2022-11-19T12:22:54.474Z,8.15
2022-11-19T12:25:39.380Z,10.20
2022-11-19T12:28:14.949Z,10.32
2022-11-19T12:30:44.392Z,7.72
2022-11-19T12:33:16.860Z,5.53
2022-11-19T12:35:43.147Z,5.05
2022-11-19T12:38:09.660Z,4.53
2022-11-19T12:40:48.770Z,7.30
2022-11-19T12:43:36.247Z,9.55
2022-11-19T12:46:12.190Z,6.35
2022-11-19T12:48:47.888Z,6.93
2022-11-19T12:51:23.109Z,4.93
2022-11-19T12:54:08.430Z,3.38
2022-11-19T12:56:53.346Z,3.55
2022-11-19T12:59:38.786Z,4.15
2022-11-19T13:02:13.458Z,6.97
2022-11-19T13:04:43.859Z,7.53
2022-11-19T13:07:23.078Z,6.53
2022-11-19T13:09:54.682Z,7.10
2022-11-19T13:12:23.180Z,7.68
2022-11-19T13:14:55.112Z,5.40
2022-11-19T13:17:38.027Z,5.28
2022-11-19T13:20:17.102Z,9.90
2022-11-19T13:22:44.955Z,6.55
2022-11-19T13:25:30.067Z,6.20
2022-11-19T13:27:57.663Z,5.22
2022-11-19T13:30:26.886Z,8.05
2022-11-19T13:32:56.317Z,5.20
2022-11-19T13:35:25.000Z,6.53
2022-11-19T13:38:02.151Z,4.65
2022-11-19T13:40:35.242Z,4.65
2022-11-19T13:43:35.698Z,3.22
2022-11-19T13:46:28.466Z,4.35
2022-11-19T13:49:03.844Z,4.15
2022-11-19T13:51:42.520Z,3.70
2022-11-19T13:54:09.146Z,5.45
2022-11-19T13:56:40.882Z,3.80
2022-11-19T13:59:08.125Z,6.30
2022-11-19T14:01:37.409Z,8.68
2022-11-19T14:04:06.833Z,5.28
2022-11-19T14:06:33.266Z,4.57
2022-11-19T14:09:18.821Z,4.88
2022-11-19T14:11:57.562Z,4.32
2022-11-19T14:15:01.758Z,3.55
2022-11-19T14:18:05.055Z,3.17
2022-11-19T14:20:56.332Z,2.25
2022-11-19T14:24:00.156Z,2.72
2022-11-19T14:26:41.714Z,1.80
2022-11-19T14:29:26.448Z,2.50
2022-11-19T14:32:08.012Z,1.90
2022-11-19T14:34:42.116Z,1.85
2022-11-19T14:37:20.682Z,1.85
2022-11-19T14:39:50.432Z,1.15
2022-11-19T14:42:18.624Z,2.30
2022-11-19T14:45:05.006Z,2.85
2022-11-19T14:47:34.626Z,1.77
2022-11-19T14:50:02.287Z,4.82
2022-11-19T14:52:31.212Z,2.40
2022-11-19T14:54:57.549Z,1.95
2022-11-19T14:57:26.066Z,1.50
2022-11-19T14:59:54.862Z,1.27
2022-11-19T15:02:33.504Z,2.67
2022-11-19T15:05:20.441Z,2.15
2022-11-19T15:08:05.853Z,4.68
2022-11-19T15:10:33.413Z,2.13
2022-11-19T15:13:15.717Z,2.25
2022-11-19T15:15:43.321Z,5.63
2022-11-19T15:18:26.225Z,5.03
2022-11-19T15:20:59.116Z,7.35
2022-11-19T15:23:29.384Z,4.88
2022-11-19T15:26:14.530Z,3.78
2022-11-19T15:28:59.738Z,3.33
2022-11-19T15:31:29.435Z,3.78
2022-11-19T15:34:09.182Z,4.43
2022-11-19T15:36:39.680Z,3.85
2022-11-19T15:39:11.214Z,3.28
2022-11-19T15:41:40.842Z,3.25
2022-11-19T15:44:09.577Z,3.30
2022-11-19T15:46:40.905Z,2.97
2022-11-19T15:49:10.514Z,3.40
2022-11-19T15:51:47.660Z,2.42
2022-11-19T15:54:14.144Z,2.25
2022-11-19T15:56:47.132Z,1.55
2022-11-19T15:59:14.618Z,1.73
2022-11-19T16:01:41.543Z,1.20
2022-11-19T16:04:13.565Z,5.95
2022-11-19T16:06:44.808Z,7.63
2022-11-19T16:09:17.467Z,4.68
2022-11-19T16:12:03.488Z,3.28
2022-11-19T16:14:48.883Z,3.85
2022-11-19T16:17:41.608Z,4.47
2022-11-19T16:20:09.764Z,4.55
2022-11-19T16:22:41.352Z,4.07
2022-11-19T16:25:11.766Z,3.08
2022-11-19T16:27:40.801Z,2.38
2022-11-19T16:30:15.834Z,2.65
2022-11-19T16:32:42.246Z,2.00
2022-11-19T16:35:10.171Z,3.30
2022-11-19T16:37:36.788Z,2.20
2022-11-19T16:40:03.300Z,2.38
2022-11-19T16:42:30.875Z,4.85
2022-11-19T16:45:05.442Z,5.30
2022-11-19T16:47:49.983Z,7.20
2022-11-19T16:50:32.186Z,4.65
2022-11-19T16:55:24.888Z,5.68
2022-11-19T16:58:14.966Z,4.45
2022-11-19T17:00:45.046Z,4.30
2022-11-19T17:03:17.695Z,3.40
2022-11-19T17:05:45.462Z,3.55
2022-11-19T17:08:25.900Z,4.35
2022-11-19T17:11:31.134Z,4.18
2022-11-19T17:13:57.548Z,6.75
2022-11-19T17:16:24.207Z,4.38
2022-11-19T17:18:50.816Z,7.47
2022-11-19T17:21:20.316Z,4.35
2022-11-19T17:23:47.940Z,4.13
2022-11-19T17:26:18.426Z,6.35
2022-11-19T17:28:49.300Z,4.18
2022-11-19T17:31:23.414Z,3.50
2022-11-19T17:34:16.329Z,4.05
2022-11-19T17:36:43.797Z,5.18
2022-11-19T17:39:10.416Z,5.38
2022-11-19T17:41:55.550Z,5.13
2022-11-19T17:44:34.661Z,7.30
2022-11-19T17:47:20.783Z,9.45
2022-11-19T17:49:48.653Z,5.60
2022-11-19T17:52:21.443Z,4.32
2022-11-19T17:54:48.333Z,4.43
2022-11-19T17:57:14.650Z,3.88
2022-11-19T17:59:41.130Z,2.72
2022-11-19T18:02:12.785Z,2.17
2022-11-19T18:04:39.150Z,1.83
2022-11-19T18:07:05.650Z,1.88
2022-11-19T18:09:34.912Z,2.13
2022-11-19T18:12:01.623Z,8.77
2022-11-19T18:14:28.183Z,7.03
2022-11-19T18:16:55.507Z,6.90
2022-11-19T18:19:31.502Z,4.88
2022-11-19T18:21:57.808Z,3.72
2022-11-19T18:24:24.097Z,3.45
2022-11-19T18:26:50.780Z,2.70
2022-11-19T18:29:17.074Z,1.88
2022-11-19T18:31:47.720Z,2.45
2022-11-19T18:34:18.903Z,2.03
2022-11-19T18:36:45.519Z,7.13
2022-11-19T18:39:12.036Z,4.70
2022-11-19T18:41:38.638Z,3.00
2022-11-19T18:44:24.072Z,2.80
2022-11-19T18:46:50.489Z,4.80
2022-11-19T18:49:16.878Z,6.95
2022-11-19T18:51:44.328Z,4.65
2022-11-19T18:54:11.441Z,11.20
2022-11-19T18:56:37.772Z,6.82
2022-11-19T18:59:05.113Z,5.40
2022-11-19T19:01:32.232Z,5.03
2022-11-19T19:03:58.619Z,3.80
2022-11-19T19:06:25.474Z,6.03
2022-11-19T19:08:51.953Z,5.90
2022-11-19T19:11:36.977Z,3.45
2022-11-19T19:14:04.110Z,2.67
2022-11-19T19:16:30.760Z,2.13
2022-11-19T19:18:57.134Z,4.35
2022-11-19T19:21:23.999Z,3.67
2022-11-19T19:23:50.650Z,2.90
2022-11-19T19:26:17.784Z,3.60
2022-11-19T19:28:47.727Z,3.78
2022-11-19T19:31:17.777Z,3.53
2022-11-19T19:33:46.342Z,2.35
2022-11-19T19:36:13.347Z,2.45
2022-11-19T19:38:42.910Z,1.95
2022-11-19T19:41:21.189Z,1.95
2022-11-19T19:43:47.966Z,1.77
2022-11-19T19:46:16.417Z,5.05
2022-11-19T19:48:47.060Z,3.92
2022-11-19T19:51:14.005Z,2.55
2022-11-19T19:53:41.781Z,2.40
2022-11-19T19:56:11.616Z,1.60
2022-11-19T19:58:38.475Z,1.30
2022-11-19T20:01:09.457Z,1.73
2022-11-19T20:03:36.277Z,1.50
2022-11-19T20:06:03.214Z,2.00
2022-11-19T20:08:30.058Z,1.60
2022-11-19T20:11:00.866Z,2.47
2022-11-19T20:13:33.535Z,3.53
2022-11-19T20:16:04.580Z,4.40
2022-11-19T20:18:32.055Z,4.78
2022-11-19T20:21:01.542Z,3.03
2022-11-19T20:23:28.207Z,2.80
2022-11-19T20:26:01.955Z,5.25
2022-11-19T20:28:29.110Z,5.00
2022-11-19T20:31:02.578Z,4.82
2022-11-19T20:33:29.030Z,4.18
2022-11-19T20:35:55.420Z,10.05
2022-11-19T20:38:22.003Z,8.80
2022-11-19T20:40:54.630Z,7.97
2022-11-19T20:43:45.818Z,5.40
2022-11-19T20:46:17.566Z,3.90
2022-11-19T20:48:44.472Z,2.63
2022-11-19T20:51:11.108Z,2.08
2022-11-19T20:53:37.642Z,1.63
2022-11-19T20:56:05.433Z,1.80
2022-11-19T20:58:32.367Z,3.58
2022-11-19T21:01:03.070Z,2.78
2022-11-19T21:03:29.604Z,3.05
2022-11-19T21:05:57.738Z,5.60
2022-11-19T21:08:24.735Z,3.80
2022-11-19T21:10:55.654Z,4.57
2022-11-19T21:13:22.073Z,4.07
2022-11-19T21:15:48.367Z,2.80
2022-11-19T21:18:14.976Z,5.07
2022-11-19T21:20:41.290Z,2.95
2022-11-19T21:23:07.823Z,2.45
2022-11-19T21:25:34.952Z,2.30
2022-11-19T21:28:01.247Z,1.85
2022-11-19T21:30:27.722Z,1.30
2022-11-19T21:32:54.172Z,1.05
2022-11-19T21:35:20.564Z,1.00
2022-11-19T21:37:46.911Z,1.13
2022-11-19T21:40:13.266Z,1.60
2022-11-19T21:42:39.550Z,1.30
2022-11-19T21:45:06.244Z,1.20
2022-11-19T21:47:32.660Z,1.52
2022-11-19T21:50:00.735Z,1.45
2022-11-19T21:52:28.121Z,1.10
2022-11-19T21:54:54.474Z,0.95
2022-11-19T21:57:20.970Z,1.33
2022-11-19T21:59:47.289Z,1.23
2022-11-19T22:02:13.679Z,1.20
2022-11-19T22:04:39.999Z,1.98
2022-11-19T22:07:06.526Z,1.60
2022-11-19T22:09:32.903Z,1.42
2022-11-19T22:11:59.180Z,3.45
2022-11-19T22:14:25.557Z,1.50
2022-11-19T22:16:54.469Z,1.60
2022-11-19T22:19:21.150Z,1.80
2022-11-19T22:21:48.899Z,1.50
2022-11-19T22:24:15.244Z,1.80
2022-11-19T22:26:41.652Z,1.50
2022-11-19T22:29:07.967Z,1.73
2022-11-19T22:31:34.454Z,2.13
2022-11-19T22:34:00.925Z,1.70
2022-11-19T22:36:30.166Z,1.38
2022-11-19T22:38:56.779Z,1.70
2022-11-19T22:41:23.064Z,1.50
2022-11-19T22:43:50.270Z,2.38
2022-11-19T22:46:17.744Z,3.42
2022-11-19T22:48:44.095Z,3.65
2022-11-19T22:51:14.840Z,7.88
2022-11-19T22:53:41.332Z,5.35
2022-11-19T22:56:08.788Z,7.95
2022-11-19T22:58:35.774Z,6.20
2022-11-19T23:01:02.753Z,5.15
2022-11-19T23:03:29.211Z,4.57
2022-11-19T23:05:56.078Z,3.08
2022-11-19T23:08:22.981Z,3.03
2022-11-19T23:10:56.423Z,2.33
2022-11-19T23:13:32.348Z,2.80
2022-11-19T23:16:11.219Z,2.40
2022-11-19T23:18:41.824Z,1.88
2022-11-19T23:21:09.699Z,4.85
2022-11-19T23:23:36.490Z,3.45
2022-11-19T23:26:04.001Z,5.22
2022-11-19T23:28:31.092Z,5.93
2022-11-19T23:31:01.844Z,6.50
2022-11-19T23:33:28.176Z,10.45
2022-11-19T23:35:54.568Z,7.68
2022-11-19T23:38:20.897Z,9.05
2022-11-19T23:40:47.376Z,9.27
2022-11-19T23:43:14.293Z,7.97
2022-11-19T23:45:40.868Z,5.85
2022-11-19T23:48:07.382Z,8.18
2022-11-19T23:50:34.062Z,8.77
2022-11-19T23:53:00.339Z,6.18
2022-11-19T23:55:26.790Z,4.85
2022-11-19T23:57:53.205Z,5.65
